Time;durP1;ratioP1;P1;durP2;ratioP2;P2;SDS_P1;SDS_P2;PMS_P1;PMS_P2;Temp;Humidity;BMP_temperature;BMP_pressure;BME280_temperature;BME280_humidity;BME280_pressure;Samples;Min_cycle;Max_cycle;Signal;HPM_P1;HPM_P2
2022/07/08 00:00:34;;;;;;;10.20;1.95;;;15.40;99.90;;;;;;5054858;28;20378;-73
2022/07/08 00:03:01;;;;;;;10.73;2.33;;;15.40;99.90;;;;;;5071585;28;20094;-73
2022/07/08 00:05:26;;;;;;;10.88;1.80;;;15.30;99.90;;;;;;5054947;28;20140;-73
2022/07/08 00:07:52;;;;;;;12.27;1.70;;;15.30;99.90;;;;;;5071551;28;20123;-73
2022/07/08 00:10:18;;;;;;;8.52;1.67;;;15.20;99.90;;;;;;5054737;28;20119;-73
2022/07/08 00:12:43;;;;;;;12.38;1.77;;;15.20;99.90;;;;;;5071357;28;20036;-73
2022/07/08 00:15:10;;;;;;;10.10;1.90;;;15.20;99.90;;;;;;5071521;28;20087;-73
2022/07/08 00:17:36;;;;;;;8.10;1.70;;;15.20;99.90;;;;;;5071452;28;20085;-73
2022/07/08 00:20:03;;;;;;;10.40;2.10;;;15.20;99.90;;;;;;5071462;28;20158;-73
2022/07/08 00:22:29;;;;;;;10.32;1.77;;;15.20;99.90;;;;;;5054651;28;20052;-73
2022/07/08 00:24:55;;;;;;;10.60;2.10;;;15.20;99.90;;;;;;5054652;28;20041;-73
2022/07/08 00:27:20;;;;;;;8.68;1.52;;;15.10;99.90;;;;;;5071355;28;20117;-73
2022/07/08 00:29:46;;;;;;;13.25;2.15;;;15.10;99.90;;;;;;5071641;28;20146;-73
2022/07/08 00:32:12;;;;;;;16.23;2.22;;;15.10;99.90;;;;;;5071495;28;20501;-73
2022/07/08 00:34:37;;;;;;;9.73;1.70;;;15.10;99.90;;;;;;5054621;28;20489;-73
2022/07/08 00:37:03;;;;;;;8.55;1.73;;;15.00;99.90;;;;;;5054589;28;20036;-73
2022/07/08 00:39:29;;;;;;;10.50;2.08;;;15.10;99.90;;;;;;5074620;28;20028;-73
2022/07/08 00:41:54;;;;;;;11.95;1.85;;;15.00;99.90;;;;;;5074901;28;20554;-73
2022/07/08 00:44:20;;;;;;;13.40;2.25;;;15.00;99.90;;;;;;5058280;28;20048;-73
2022/07/08 00:46:46;;;;;;;10.00;1.73;;;15.00;99.90;;;;;;5075481;28;20131;-73
2022/07/08 00:49:12;;;;;;;13.70;1.77;;;15.00;99.90;;;;;;5074864;28;20033;-73
2022/07/08 00:51:39;;;;;;;9.65;2.25;;;15.00;99.90;;;;;;5074734;28;20504;-73
2022/07/08 00:54:05;;;;;;;9.85;2.33;;;15.00;99.90;;;;;;5074675;28;20386;-73
2022/07/08 00:56:31;;;;;;;9.85;1.55;;;15.00;99.90;;;;;;5058331;28;20070;-73
2022/07/08 00:58:56;;;;;;;8.93;2.08;;;14.90;99.90;;;;;;5058277;28;20090;-73
2022/07/08 01:01:22;;;;;;;9.20;1.55;;;14.90;99.90;;;;;;5074881;28;20086;-73
2022/07/08 01:03:48;;;;;;;8.98;1.70;;;14.90;99.90;;;;;;5058133;28;20408;-73
2022/07/08 01:06:14;;;;;;;12.02;1.90;;;14.90;99.90;;;;;;5057902;28;20405;-73
2022/07/08 01:08:40;;;;;;;10.27;2.00;;;14.90;99.90;;;;;;5074454;28;20041;-73
2022/07/08 01:11:08;;;;;;;11.65;2.10;;;14.80;99.90;;;;;;5074347;28;20514;-73
2022/07/08 01:13:34;;;;;;;7.97;1.55;;;14.80;99.90;;;;;;5074298;28;20124;-73
2022/07/08 01:16:00;;;;;;;9.15;1.77;;;14.80;99.90;;;;;;5074389;28;20047;-73
2022/07/08 01:18:29;;;;;;;8.52;2.03;;;14.80;99.90;;;;;;5074651;28;20036;-73
2022/07/08 01:20:55;;;;;;;7.75;1.75;;;14.70;99.90;;;;;;5074507;28;20055;-73
2022/07/08 01:23:21;;;;;;;10.45;1.98;;;14.60;99.90;;;;;;5074467;28;20106;-73
2022/07/08 01:25:47;;;;;;;10.35;2.88;;;14.60;99.90;;;;;;5074219;28;20493;-73
2022/07/08 01:28:14;;;;;;;11.35;1.83;;;14.60;99.90;;;;;;5074136;28;20078;-73
2022/07/08 01:30:40;;;;;;;8.68;1.75;;;14.60;99.90;;;;;;5074131;28;20527;-73
2022/07/08 01:33:07;;;;;;;9.40;1.70;;;14.50;99.90;;;;;;5057248;28;20123;-73
2022/07/08 01:35:33;;;;;;;11.25;1.70;;;14.40;99.90;;;;;;5074241;28;20553;-73
2022/07/08 01:37:58;;;;;;;10.73;2.00;;;14.40;99.90;;;;;;5074020;28;20036;-73
2022/07/08 01:40:24;;;;;;;14.82;1.88;;;14.40;99.90;;;;;;5073927;28;20036;-73
2022/07/08 01:42:49;;;;;;;8.25;2.00;;;14.30;99.90;;;;;;5073764;28;20036;-73
2022/07/08 01:45:15;;;;;;;11.85;2.30;;;14.30;99.90;;;;;;5074116;28;20079;-73
2022/07/08 01:47:41;;;;;;;7.95;1.80;;;14.30;99.90;;;;;;5057116;28;20412;-73
2022/07/08 01:50:07;;;;;;;12.23;1.98;;;14.20;99.90;;;;;;5072741;28;20041;-73
2022/07/08 01:52:33;;;;;;;9.32;2.05;;;14.20;99.90;;;;;;5056949;28;20040;-73
2022/07/08 01:54:58;;;;;;;7.43;1.95;;;14.10;99.90;;;;;;5073966;28;20036;-73
2022/07/08 01:57:24;;;;;;;10.32;1.60;;;14.10;99.90;;;;;;5073858;28;20042;-72
2022/07/08 01:59:50;;;;;;;10.07;1.67;;;14.10;99.90;;;;;;5073539;28;20048;-72
2022/07/08 02:02:21;;;;;;;10.25;2.05;;;14.10;99.90;;;;;;5073444;28;20400;-72
2022/07/08 02:04:47;;;;;;;12.57;2.22;;;14.10;99.90;;;;;;5073425;28;20036;-73
2022/07/08 02:07:13;;;;;;;11.30;1.88;;;14.10;99.90;;;;;;5056919;28;20075;-73
2022/07/08 02:09:40;;;;;;;10.68;2.35;;;14.00;99.90;;;;;;5073458;28;20033;-73
2022/07/08 02:12:19;;;;;;;10.70;1.60;;;14.00;99.90;;;;;;5073246;28;20090;-73
2022/07/08 02:14:54;;;;;;;10.90;2.00;;;14.00;99.90;;;;;;5073321;28;20058;-73
2022/07/08 02:17:23;;;;;;;7.95;1.83;;;13.90;99.90;;;;;;5056725;28;20055;-73
2022/07/08 02:19:50;;;;;;;10.73;2.60;;;13.90;99.90;;;;;;5073132;28;20079;-73
2022/07/08 02:22:16;;;;;;;12.60;2.13;;;13.80;99.90;;;;;;5073273;28;20123;-73
2022/07/08 02:24:42;;;;;;;18.08;2.38;;;13.80;99.90;;;;;;5073306;28;20505;-73
2022/07/08 02:27:08;;;;;;;10.63;2.03;;;13.80;99.90;;;;;;5073264;28;20501;-73
2022/07/08 02:29:34;;;;;;;14.57;2.45;;;13.80;99.90;;;;;;5072886;28;20493;-73
2022/07/08 02:32:00;;;;;;;10.60;1.77;;;13.70;99.90;;;;;;5073095;28;20086;-73
2022/07/08 02:34:26;;;;;;;12.02;2.15;;;13.70;99.90;;;;;;5056038;28;20560;-73
2022/07/08 02:36:52;;;;;;;12.05;2.08;;;13.70;99.90;;;;;;5056426;28;20091;-73
2022/07/08 02:39:18;;;;;;;11.45;1.90;;;13.60;99.90;;;;;;5072729;28;20127;-73
2022/07/08 02:41:44;;;;;;;11.30;1.88;;;13.60;99.90;;;;;;5072656;28;20074;-73
2022/07/08 02:44:09;;;;;;;10.77;1.85;;;13.60;99.90;;;;;;5072649;28;20043;-73
2022/07/08 02:46:36;;;;;;;10.52;1.95;;;13.50;99.90;;;;;;5055964;28;20098;-73
2022/07/08 02:49:02;;;;;;;10.02;2.08;;;13.60;99.90;;;;;;5056152;28;20401;-73
2022/07/08 02:51:27;;;;;;;11.48;2.13;;;13.60;99.90;;;;;;5055855;28;20047;-72
2022/07/08 02:53:54;;;;;;;12.52;1.80;;;13.60;99.90;;;;;;5072286;28;20036;-73
2022/07/08 02:56:20;;;;;;;12.15;2.10;;;13.50;99.90;;;;;;5055803;28;20040;-73
2022/07/08 02:58:45;;;;;;;11.27;1.92;;;13.60;99.90;;;;;;5072387;28;20048;-73
2022/07/08 03:01:11;;;;;;;13.88;2.50;;;13.50;99.90;;;;;;5072265;28;20033;-73
2022/07/08 03:03:36;;;;;;;7.05;1.65;;;13.50;99.90;;;;;;5072530;28;20094;-73
2022/07/08 03:06:02;;;;;;;10.00;2.08;;;13.50;99.90;;;;;;5072517;28;20044;-73
2022/07/08 03:08:28;;;;;;;12.45;2.53;;;13.40;99.90;;;;;;5055873;28;20409;-73
2022/07/08 03:10:53;;;;;;;13.93;2.33;;;13.40;99.90;;;;;;5072082;28;20074;-73
2022/07/08 03:13:19;;;;;;;12.15;2.20;;;13.40;99.90;;;;;;5072087;28;20040;-73
2022/07/08 03:15:44;;;;;;;13.07;2.40;;;13.30;99.90;;;;;;5055532;28;20033;-73
2022/07/08 03:18:10;;;;;;;10.13;2.13;;;13.30;99.90;;;;;;5055743;28;20067;-73
2022/07/08 03:20:36;;;;;;;11.18;2.05;;;13.30;99.90;;;;;;5072082;28;20489;-73
2022/07/08 03:23:01;;;;;;;12.23;2.10;;;13.20;99.90;;;;;;5072227;28;20040;-73
2022/07/08 03:25:29;;;;;;;12.63;1.98;;;13.20;99.90;;;;;;5055371;28;20550;-73
2022/07/08 03:27:55;;;;;;;12.52;2.05;;;13.20;99.90;;;;;;5072269;28;20059;-73
2022/07/08 03:30:21;;;;;;;12.60;2.20;;;13.20;99.90;;;;;;5071962;28;20492;-73
2022/07/08 03:32:46;;;;;;;10.55;2.13;;;13.20;99.90;;;;;;5071847;28;20032;-73
2022/07/08 03:35:12;;;;;;;8.30;1.98;;;13.10;99.90;;;;;;5055205;28;20047;-73
2022/07/08 03:37:42;;;;;;;8.07;2.00;;;13.10;99.90;;;;;;5071846;28;20036;-73
2022/07/08 03:42:53;;;;;;;9.10;2.17;;;13.00;99.90;;;;;;5071816;28;20040;-73
2022/07/08 03:45:19;;;;;;;9.68;2.25;;;13.00;99.90;;;;;;5071775;28;20043;-73
2022/07/08 03:47:45;;;;;;;8.23;1.90;;;13.00;99.90;;;;;;5055032;28;20037;-73
2022/07/08 03:50:10;;;;;;;10.02;1.80;;;13.00;99.90;;;;;;5071733;28;20037;-73
2022/07/08 03:52:36;;;;;;;13.63;2.28;;;13.00;99.90;;;;;;5055082;28;20044;-73
2022/07/08 03:55:02;;;;;;;9.70;2.30;;;13.10;99.90;;;;;;5071740;28;20085;-73
2022/07/08 03:57:27;;;;;;;10.63;1.80;;;13.10;99.90;;;;;;5071778;28;20151;-73
2022/07/08 03:59:53;;;;;;;9.45;2.30;;;13.10;99.90;;;;;;5071626;28;20048;-73
2022/07/08 04:02:18;;;;;;;8.75;2.10;;;13.10;99.90;;;;;;5071594;28;20037;-73
2022/07/08 04:04:44;;;;;;;12.45;2.00;;;13.10;99.90;;;;;;5071906;28;20131;-73
2022/07/08 04:07:10;;;;;;;8.90;1.73;;;13.10;99.90;;;;;;5071827;28;20378;-73
2022/07/08 04:09:35;;;;;;;12.00;2.10;;;13.20;99.90;;;;;;5071461;28;20445;-73
2022/07/08 04:12:01;;;;;;;15.02;2.75;;;13.20;99.90;;;;;;5071482;28;20064;-73
2022/07/08 04:14:26;;;;;;;9.07;1.55;;;13.20;99.90;;;;;;5074725;28;20040;-73
2022/07/08 04:16:52;;;;;;;13.25;2.55;;;13.10;99.90;;;;;;5075472;28;20040;-73
2022/07/08 04:19:17;;;;;;;12.25;1.88;;;13.20;99.90;;;;;;5059003;28;20071;-73
2022/07/08 04:21:43;;;;;;;10.43;1.90;;;13.10;99.90;;;;;;5058675;28;20082;-73
2022/07/08 04:24:08;;;;;;;10.27;2.10;;;13.20;99.90;;;;;;5075383;28;20044;-73
2022/07/08 04:26:34;;;;;;;14.88;2.05;;;13.20;99.90;;;;;;5058893;28;20033;-73
2022/07/08 04:29:00;;;;;;;9.98;1.95;;;13.20;99.90;;;;;;5075583;28;20044;-73
2022/07/08 04:31:29;;;;;;;9.95;1.48;;;13.20;99.90;;;;;;5075294;28;20082;-73
2022/07/08 04:33:55;;;;;;;6.68;1.60;;;13.20;99.90;;;;;;5075024;28;20415;-73
2022/07/08 04:36:21;;;;;;;13.13;2.42;;;13.20;99.90;;;;;;5075141;28;20128;-73
2022/07/08 04:38:47;;;;;;;5.90;1.90;;;13.30;99.90;;;;;;5075363;28;20102;-73
2022/07/08 04:41:12;;;;;;;8.77;1.90;;;13.20;99.90;;;;;;5075026;28;20496;-73
2022/07/08 04:43:38;;;;;;;12.02;2.20;;;13.30;99.90;;;;;;5074911;28;20119;-73
2022/07/08 04:46:04;;;;;;;10.45;2.42;;;13.30;99.90;;;;;;5074916;28;20041;-73
2022/07/08 04:48:30;;;;;;;12.05;2.25;;;13.30;99.90;;;;;;5074866;28;20571;-72
2022/07/08 04:50:56;;;;;;;8.07;1.70;;;13.40;99.90;;;;;;5074846;28;20139;-73
2022/07/08 04:53:21;;;;;;;9.52;2.10;;;13.40;99.90;;;;;;5058127;28;20094;-73
2022/07/08 04:55:47;;;;;;;10.60;1.83;;;13.50;99.90;;;;;;5074812;28;20039;-73
2022/07/08 04:58:13;;;;;;;9.13;1.85;;;13.50;99.90;;;;;;5075106;28;20036;-73
2022/07/08 05:00:38;;;;;;;10.23;1.80;;;13.60;99.90;;;;;;5074728;28;20044;-73
2022/07/08 05:03:04;;;;;;;11.60;1.65;;;13.60;99.90;;;;;;5074849;28;20040;-73
2022/07/08 05:05:30;;;;;;;11.00;2.08;;;13.70;99.90;;;;;;5074897;28;20382;-73
2022/07/08 05:07:59;;;;;;;10.30;1.90;;;13.80;99.90;;;;;;5074507;28;20121;-73
2022/07/08 05:10:25;;;;;;;9.48;1.83;;;13.80;99.90;;;;;;5057723;28;20139;-73
2022/07/08 05:12:51;;;;;;;12.27;1.90;;;13.90;99.90;;;;;;5074336;28;20123;-72
2022/07/08 05:15:17;;;;;;;13.13;2.25;;;14.10;99.90;;;;;;5074463;28;20036;-72
2022/07/08 05:17:42;;;;;;;11.80;1.77;;;14.10;99.90;;;;;;5074673;28;20454;-72
2022/07/08 05:20:10;;;;;;;12.82;2.00;;;14.20;99.90;;;;;;5057633;28;20512;-72
2022/07/08 05:22:36;;;;;;;12.38;2.00;;;14.30;99.90;;;;;;5074209;28;20130;-73
2022/07/08 05:25:06;;;;;;;8.77;1.80;;;14.30;99.90;;;;;;5073232;28;20137;-73
2022/07/08 05:27:32;;;;;;;14.20;2.55;;;14.40;99.90;;;;;;5057395;28;20037;-73
2022/07/08 05:29:58;;;;;;;11.90;1.98;;;14.40;99.90;;;;;;5057454;28;20059;-73
2022/07/08 05:32:24;;;;;;;9.35;2.28;;;14.50;99.90;;;;;;5057360;28;20036;-73
2022/07/08 05:34:49;;;;;;;16.85;2.10;;;14.60;99.90;;;;;;5074056;28;20033;-73
2022/07/08 05:37:15;;;;;;;14.88;2.35;;;14.70;99.90;;;;;;5074239;28;20086;-72
2022/07/08 05:39:41;;;;;;;10.27;2.15;;;14.70;99.90;;;;;;5073977;28;20416;-73
2022/07/08 05:42:08;;;;;;;13.10;2.17;;;14.80;99.90;;;;;;5073929;28;20509;-72
2022/07/08 05:44:34;;;;;;;13.60;2.17;;;14.80;99.90;;;;;;5073833;28;20047;-72
2022/07/08 05:47:00;;;;;;;13.27;2.08;;;14.90;99.90;;;;;;5057150;28;20032;-72
2022/07/08 05:49:26;;;;;;;10.35;1.95;;;15.00;99.90;;;;;;5057048;28;20032;-73
2022/07/08 05:51:53;;;;;;;11.63;1.83;;;15.10;99.90;;;;;;5073632;28;20048;-73
2022/07/08 05:54:18;;;;;;;12.73;2.20;;;15.20;99.90;;;;;;5073620;28;20123;-73
2022/07/08 05:56:44;;;;;;;10.10;2.17;;;15.30;99.90;;;;;;5073891;28;20116;-73
2022/07/08 05:59:09;;;;;;;11.75;2.10;;;15.30;99.90;;;;;;5073627;28;20032;-73
2022/07/08 06:01:35;;;;;;;13.57;2.33;;;15.40;99.90;;;;;;5057047;28;20043;-73
2022/07/08 06:04:00;;;;;;;14.10;2.10;;;15.40;99.90;;;;;;5073741;28;20056;-73
2022/07/08 06:06:26;;;;;;;12.52;1.88;;;15.40;99.90;;;;;;5073784;28;20044;-73
2022/07/08 06:08:52;;;;;;;9.35;1.90;;;15.50;99.90;;;;;;5073633;28;20066;-72
2022/07/08 06:11:17;;;;;;;8.43;1.85;;;15.60;99.90;;;;;;5073452;28;20063;-72
2022/07/08 06:13:43;;;;;;;14.05;2.05;;;15.60;99.90;;;;;;5056634;28;20048;-72
2022/07/08 06:16:08;;;;;;;11.80;2.30;;;15.70;99.90;;;;;;5073615;28;20040;-73
2022/07/08 06:18:34;;;;;;;9.52;1.75;;;15.80;99.90;;;;;;5056813;28;20512;-73
2022/07/08 06:21:00;;;;;;;14.05;2.13;;;15.90;99.90;;;;;;5056594;28;20526;-73
2022/07/08 06:23:26;;;;;;;13.30;2.30;;;16.00;99.90;;;;;;5073353;28;20130;-73
2022/07/08 06:25:51;;;;;;;11.13;2.00;;;16.00;99.90;;;;;;5073034;28;20496;-73
2022/07/08 06:28:17;;;;;;;10.70;1.80;;;16.10;99.90;;;;;;5056440;28;20048;-73
2022/07/08 06:30:43;;;;;;;11.25;2.08;;;16.20;99.90;;;;;;5073199;28;20044;-73
2022/07/08 06:33:09;;;;;;;11.77;1.80;;;16.30;99.90;;;;;;5072967;28;20090;-73
2022/07/08 06:35:34;;;;;;;12.93;2.15;;;16.40;99.90;;;;;;5072455;28;20044;-72
2022/07/08 06:38:00;;;;;;;9.32;2.25;;;16.40;99.90;;;;;;5072814;28;20037;-72
2022/07/08 06:40:26;;;;;;;12.65;2.35;;;16.50;99.90;;;;;;5072835;28;20028;-73
2022/07/08 06:42:51;;;;;;;8.63;1.80;;;16.60;99.90;;;;;;5072911;28;20045;-73
2022/07/08 06:45:17;;;;;;;10.75;1.80;;;16.60;99.90;;;;;;5056268;28;20051;-73
2022/07/08 06:47:43;;;;;;;12.27;2.25;;;16.60;99.90;;;;;;5072607;28;20052;-72
2022/07/08 06:50:09;;;;;;;12.02;2.78;;;16.70;99.90;;;;;;5072631;28;20127;-72
2022/07/08 06:52:35;;;;;;;10.13;1.77;;;16.70;99.90;;;;;;5055756;28;20047;-72
2022/07/08 06:55:01;;;;;;;12.15;1.92;;;16.80;99.90;;;;;;5072507;28;20036;-72
2022/07/08 06:57:26;;;;;;;13.88;2.55;;;16.90;99.90;;;;;;5072437;28;20162;-72
2022/07/08 06:59:52;;;;;;;14.50;2.55;;;16.90;99.90;;;;;;5072387;28;20120;-72
2022/07/08 07:02:18;;;;;;;13.77;2.10;;;16.90;99.90;;;;;;5072487;28;20037;-72
2022/07/08 07:04:44;;;;;;;8.23;1.85;;;16.90;99.90;;;;;;5055756;28;20048;-72
2022/07/08 07:07:09;;;;;;;10.63;1.90;;;16.90;99.90;;;;;;5072364;28;20056;-72
2022/07/08 07:09:35;;;;;;;12.48;2.25;;;17.00;99.90;;;;;;5072526;28;20037;-72
2022/07/08 07:12:02;;;;;;;10.77;1.90;;;17.10;99.90;;;;;;5072450;28;20516;-72
2022/07/08 07:14:28;;;;;;;11.55;2.35;;;17.10;99.90;;;;;;5072476;28;20054;-72
2022/07/08 07:16:54;;;;;;;9.13;1.80;;;17.20;99.90;;;;;;5055452;28;20044;-72
2022/07/08 07:19:20;;;;;;;13.02;2.17;;;17.30;99.90;;;;;;5055518;28;20091;-72
2022/07/08 07:21:46;;;;;;;10.23;2.15;;;17.30;99.90;;;;;;5072034;28;20037;-72
2022/07/08 07:24:11;;;;;;;12.07;2.45;;;17.40;99.90;;;;;;5055360;28;20040;-72
2022/07/08 07:26:37;;;;;;;10.80;2.03;;;17.50;99.90;;;;;;5072070;28;20044;-72
2022/07/08 07:29:03;;;;;;;15.10;2.80;;;17.50;99.90;;;;;;5072025;28;20042;-72
2022/07/08 07:31:29;;;;;;;11.15;2.10;;;17.60;99.90;;;;;;5055244;28;20040;-72
2022/07/08 07:33:54;;;;;;;9.10;1.90;;;17.70;99.90;;;;;;5071718;28;20044;-72
2022/07/08 07:36:20;;;;;;;7.53;1.95;;;17.70;99.90;;;;;;5071991;28;20067;-72
2022/07/08 07:38:46;;;;;;;11.25;2.72;;;17.70;99.90;;;;;;5071929;28;20149;-71
2022/07/08 07:41:12;;;;;;;13.30;1.88;;;17.70;99.90;;;;;;5055381;28;20041;-72
2022/07/08 07:43:38;;;;;;;9.73;2.00;;;17.80;99.90;;;;;;5055003;28;20414;-72
2022/07/08 07:46:03;;;;;;;11.60;2.10;;;18.00;99.90;;;;;;5071847;28;20047;-72
2022/07/08 07:48:29;;;;;;;7.82;2.03;;;18.10;99.90;;;;;;5070972;28;20074;-72
2022/07/08 07:50:54;;;;;;;12.40;2.38;;;18.10;99.90;;;;;;5071748;28;20075;-72
2022/07/08 07:53:20;;;;;;;8.65;1.55;;;18.10;99.90;;;;;;5071780;28;20037;-72
2022/07/08 07:55:46;;;;;;;13.27;2.45;;;18.10;99.90;;;;;;5071701;28;20036;-72
2022/07/08 07:58:11;;;;;;;8.85;2.50;;;18.20;99.90;;;;;;5071837;28;20123;-72
2022/07/08 08:00:37;;;;;;;10.65;2.10;;;18.20;99.90;;;;;;5055073;28;20066;-73
2022/07/08 08:03:03;;;;;;;10.95;1.70;;;18.20;99.90;;;;;;5055235;28;20048;-73
2022/07/08 08:05:29;;;;;;;10.10;2.20;;;18.10;99.90;;;;;;5071652;28;20135;-72
2022/07/08 08:07:55;;;;;;;10.57;1.98;;;18.10;99.90;;;;;;5071853;28;20127;-72
2022/07/08 08:10:20;;;;;;;7.22;1.63;;;18.20;99.90;;;;;;5071624;28;20048;-72
2022/07/08 08:12:46;;;;;;;7.53;1.67;;;18.20;99.90;;;;;;5071547;28;20128;-73
2022/07/08 08:15:12;;;;;;;8.85;1.83;;;18.20;99.90;;;;;;5071655;28;20029;-73
2022/07/08 08:17:42;;;;;;;7.30;1.80;;;18.20;99.90;;;;;;5071885;28;20078;-73
2022/07/08 08:20:10;;;;;;;11.25;2.00;;;18.20;99.90;;;;;;5071779;28;20473;-72
2022/07/08 08:22:36;;;;;;;12.68;2.22;;;18.30;99.90;;;;;;5071398;28;20090;-72
2022/07/08 08:25:02;;;;;;;10.55;2.05;;;18.40;99.90;;;;;;5071439;28;20036;-71
2022/07/08 08:27:28;;;;;;;6.70;1.73;;;18.50;99.90;;;;;;5071443;28;20493;-71
2022/07/08 08:29:54;;;;;;;10.80;2.00;;;18.60;99.90;;;;;;5071624;28;20051;-72
2022/07/08 08:32:20;;;;;;;10.77;2.15;;;18.80;99.90;;;;;;5071275;28;20477;-72
2022/07/08 08:34:46;;;;;;;12.65;2.30;;;18.90;99.90;;;;;;5054622;28;20131;-72
2022/07/08 08:37:12;;;;;;;11.45;1.70;;;18.90;99.90;;;;;;5071361;28;20121;-72
2022/07/08 08:39:39;;;;;;;10.15;2.00;;;19.00;99.90;;;;;;5054850;28;20405;-72
2022/07/08 08:42:06;;;;;;;8.90;2.20;;;19.10;99.90;;;;;;5071181;28;20386;-72
2022/07/08 08:44:32;;;;;;;8.60;2.25;;;19.10;99.90;;;;;;5071282;28;20080;-72
2022/07/08 08:46:58;;;;;;;8.38;1.80;;;19.20;99.90;;;;;;5071503;28;20085;-72
2022/07/08 08:49:25;;;;;;;13.85;2.00;;;19.30;99.90;;;;;;5071198;28;20041;-72
2022/07/08 08:51:51;;;;;;;6.35;1.70;;;19.50;99.90;;;;;;5054447;28;20428;-72
2022/07/08 08:54:19;;;;;;;7.30;1.83;;;19.60;99.90;;;;;;5071140;28;20044;-72
2022/07/08 08:56:49;;;;;;;7.50;1.80;;;19.60;99.90;;;;;;5071147;28;20040;-71
2022/07/08 08:59:15;;;;;;;13.68;2.53;;;19.60;99.90;;;;;;5072186;28;20422;-70
2022/07/08 09:01:41;;;;;;;12.15;2.10;;;19.60;99.90;;;;;;5075051;28;20033;-70
2022/07/08 09:04:10;;;;;;;10.00;2.17;;;19.50;99.90;;;;;;5074814;28;20481;-70
2022/07/08 09:06:37;;;;;;;9.80;2.40;;;19.40;99.90;;;;;;5074752;28;20040;-71
2022/07/08 09:09:03;;;;;;;6.82;2.00;;;19.40;99.90;;;;;;5074699;28;20047;-70
2022/07/08 09:11:30;;;;;;;12.27;1.95;;;19.30;99.90;;;;;;5075683;28;20094;-70
2022/07/08 09:14:18;;;;;;;8.80;2.30;;;19.30;99.90;;;;;;5074466;28;20512;-70
2022/07/08 09:17:21;;;;;;;9.15;2.17;;;19.20;99.90;;;;;;5057747;28;20032;-69
2022/07/08 09:19:50;;;;;;;10.15;2.50;;;19.20;99.90;;;;;;5074327;28;20083;-69
2022/07/08 09:22:16;;;;;;;13.40;2.20;;;19.20;99.90;;;;;;5074194;28;20036;-70
2022/07/08 09:24:43;;;;;;;12.38;2.08;;;19.30;99.90;;;;;;5074545;28;20041;-70
2022/07/08 09:27:10;;;;;;;9.10;2.20;;;19.40;99.90;;;;;;5074235;28;20044;-70
2022/07/08 09:29:39;;;;;;;8.18;2.00;;;19.50;99.90;;;;;;5074136;28;20040;-70
2022/07/08 09:32:11;;;;;;;13.02;2.42;;;19.60;99.90;;;;;;5057683;28;20091;-70
2022/07/08 09:34:37;;;;;;;8.00;1.85;;;19.70;99.90;;;;;;5057385;28;20037;-70
2022/07/08 09:37:11;;;;;;;9.13;1.73;;;19.70;99.90;;;;;;5074057;28;20075;-70
2022/07/08 09:39:37;;;;;;;7.97;1.95;;;19.80;99.90;;;;;;5074611;28;20040;-70
2022/07/08 09:42:07;;;;;;;8.75;1.98;;;19.80;99.90;;;;;;5074163;28;20111;-70
2022/07/08 09:44:32;;;;;;;8.63;1.73;;;19.90;99.90;;;;;;5073875;28;20047;-70
2022/07/08 09:46:58;;;;;;;7.57;1.83;;;19.90;99.90;;;;;;5073803;28;20040;-70
2022/07/08 09:49:34;;;;;;;5.65;2.00;;;19.90;99.90;;;;;;5073858;28;20083;-70
2022/07/08 09:52:00;;;;;;;7.18;1.55;;;20.00;99.90;;;;;;5073948;28;20078;-70
2022/07/08 09:54:27;;;;;;;11.50;2.33;;;19.90;99.90;;;;;;5073684;28;20102;-70
2022/07/08 09:57:04;;;;;;;7.78;1.60;;;20.00;99.90;;;;;;5073684;28;20076;-70
2022/07/08 09:59:31;;;;;;;9.23;1.70;;;20.10;99.90;;;;;;5073704;28;20044;-70
2022/07/08 10:01:57;;;;;;;7.85;1.35;;;20.10;99.90;;;;;;5073457;28;20028;-70
2022/07/08 10:04:24;;;;;;;7.97;1.58;;;20.10;99.90;;;;;;5073602;28;20055;-70
2022/07/08 10:06:54;;;;;;;9.23;2.45;;;20.10;99.90;;;;;;5073506;28;20044;-70
2022/07/08 10:09:22;;;;;;;8.85;1.85;;;20.10;99.90;;;;;;5073376;28;20478;-71
2022/07/08 10:11:49;;;;;;;7.53;2.05;;;20.10;99.90;;;;;;5072700;28;20041;-71
2022/07/08 10:14:15;;;;;;;7.18;1.70;;;20.00;99.90;;;;;;5073195;28;20404;-70
2022/07/08 10:16:43;;;;;;;7.28;1.60;;;20.00;99.90;;;;;;5073214;28;20064;-70
2022/07/08 10:19:17;;;;;;;5.68;1.70;;;20.00;99.90;;;;;;5073199;28;20045;-71
2022/07/08 10:21:50;;;;;;;8.63;2.13;;;20.00;99.90;;;;;;5073172;28;20058;-71
2022/07/08 10:24:20;;;;;;;6.95;1.80;;;20.10;99.90;;;;;;5074998;28;20397;-71
2022/07/08 10:26:47;;;;;;;13.05;1.95;;;20.00;99.90;;;;;;5073079;28;20452;-70
2022/07/08 10:29:14;;;;;;;9.05;1.98;;;20.00;99.90;;;;;;5073283;28;20461;-71
2022/07/08 10:31:46;;;;;;;10.88;2.03;;;20.00;99.90;;;;;;5073126;28;20497;-71
2022/07/08 10:34:27;;;;;;;8.88;1.58;;;20.10;99.90;;;;;;5072850;28;20052;-71
2022/07/08 10:36:54;;;;;;;8.88;1.90;;;20.20;99.90;;;;;;5072904;28;20044;-71
2022/07/08 10:39:40;;;;;;;6.07;1.50;;;20.30;99.90;;;;;;5072776;28;20123;-71
2022/07/08 10:42:07;;;;;;;6.97;1.63;;;20.30;99.90;;;;;;5072730;28;20037;-71
2022/07/08 10:44:45;;;;;;;8.30;1.90;;;20.30;99.90;;;;;;5072669;28;20405;-71
2022/07/08 10:47:16;;;;;;;7.45;1.92;;;20.40;99.90;;;;;;5072640;28;20044;-71
2022/07/08 10:49:47;;;;;;;9.98;2.00;;;20.40;99.90;;;;;;5072825;28;20044;-71
2022/07/08 10:52:14;;;;;;;8.15;1.80;;;20.40;99.90;;;;;;5072731;28;20047;-71
2022/07/08 10:54:40;;;;;;;9.00;1.98;;;20.50;99.90;;;;;;5072487;28;20049;-71
2022/07/08 10:57:13;;;;;;;9.35;2.25;;;20.60;99.90;;;;;;5072479;28;20041;-72
2022/07/08 10:59:39;;;;;;;8.35;1.77;;;20.60;99.90;;;;;;5072599;28;20123;-72
2022/07/08 11:02:11;;;;;;;9.60;1.95;;;20.60;99.90;;;;;;5072663;28;20128;-72
2022/07/08 11:04:37;;;;;;;7.95;2.10;;;20.60;99.90;;;;;;5072448;28;20040;-72
2022/07/08 11:07:20;;;;;;;9.23;1.77;;;20.50;99.90;;;;;;5072332;28;20050;-71
2022/07/08 11:09:55;;;;;;;;;;;20.50;99.90;;;;;;5072709;28;20051;-71
2022/07/08 11:12:42;;;;;;;9.00;1.98;;;20.40;99.90;;;;;;5072207;28;20376;-71
2022/07/08 11:15:26;;;;;;;8.43;2.00;;;20.50;99.90;;;;;;5072189;28;20082;-71
2022/07/08 11:17:54;;;;;;;7.40;1.80;;;20.60;99.90;;;;;;5072209;28;20047;-71
2022/07/08 11:20:20;;;;;;;11.30;2.55;;;20.80;99.90;;;;;;5072085;28;20048;-71
2022/07/08 11:22:46;;;;;;;11.07;1.65;;;21.10;99.90;;;;;;5072229;28;20040;-71
2022/07/08 11:25:13;;;;;;;10.75;2.08;;;21.20;99.90;;;;;;5072081;28;20408;-71
2022/07/08 11:27:39;;;;;;;8.85;2.08;;;21.30;99.90;;;;;;5072036;28;20036;-71
2022/07/08 11:30:11;;;;;;;10.18;2.22;;;21.30;99.90;;;;;;5071985;28;20409;-71
2022/07/08 11:32:37;;;;;;;8.48;2.00;;;21.50;99.90;;;;;;5072144;28;20102;-71
2022/07/08 11:35:03;;;;;;;7.50;1.70;;;21.60;99.90;;;;;;5071959;28;20047;-71
2022/07/08 11:37:32;;;;;;;9.30;1.63;;;21.60;99.90;;;;;;5071968;28;20509;-71
2022/07/08 11:39:59;;;;;;;7.72;2.08;;;21.70;99.90;;;;;;5071905;28;20051;-71
2022/07/08 11:42:24;;;;;;;7.38;2.00;;;21.80;99.90;;;;;;5072017;28;20036;-71
2022/07/08 11:44:51;;;;;;;6.78;1.77;;;22.00;99.90;;;;;;5072044;28;20047;-71
2022/07/08 11:47:18;;;;;;;5.57;1.70;;;22.10;99.90;;;;;;5072070;28;20109;-71
2022/07/08 11:49:45;;;;;;;7.22;2.00;;;22.40;99.90;;;;;;5071705;28;20119;-72
2022/07/08 11:52:14;;;;;;;11.38;2.35;;;22.50;99.90;;;;;;5071651;28;20052;-73
2022/07/08 11:54:39;;;;;;;11.35;2.80;;;22.80;99.90;;;;;;5071642;28;20048;-73
2022/07/08 11:57:05;;;;;;;9.32;2.15;;;23.30;99.90;;;;;;5072001;28;20042;-73
2022/07/08 11:59:35;;;;;;;7.95;2.13;;;23.50;99.90;;;;;;5071721;28;20040;-72
2022/07/08 12:02:04;;;;;;;10.07;1.90;;;23.60;99.90;;;;;;5071591;28;20067;-72
2022/07/08 12:04:30;;;;;;;9.93;1.98;;;23.50;99.90;;;;;;5071604;28;20090;-72
2022/07/08 12:06:59;;;;;;;6.43;1.85;;;23.20;99.90;;;;;;5071668;28;20048;-73
2022/07/08 12:09:25;;;;;;;7.28;1.95;;;23.00;99.90;;;;;;5071736;28;20501;-73
2022/07/08 12:11:53;;;;;;;5.75;1.90;;;22.90;99.90;;;;;;5071685;28;20041;-73
2022/07/08 12:14:19;;;;;;;7.63;2.15;;;22.90;99.90;;;;;;5071547;28;20501;-73
2022/07/08 12:16:46;;;;;;;7.78;1.75;;;23.30;99.90;;;;;;5071544;28;20048;-73
2022/07/08 12:19:40;;;;;;;6.70;1.73;;;23.30;99.90;;;;;;5071490;28;20037;-73
2022/07/08 12:22:08;;;;;;;6.15;1.80;;;23.60;99.90;;;;;;5071461;28;20039;-73
2022/07/08 12:24:36;;;;;;;8.45;1.77;;;23.50;99.90;;;;;;5054753;28;20094;-73
2022/07/08 12:27:03;;;;;;;11.35;1.92;;;23.50;99.90;;;;;;5071380;28;20119;-73
2022/07/08 12:29:34;;;;;;;5.93;2.08;;;23.80;99.90;;;;;;5071437;28;20048;-73
2022/07/08 12:32:00;;;;;;;8.10;1.80;;;24.10;99.90;;;;;;5072921;28;20044;-73
2022/07/08 12:34:26;;;;;;;8.68;2.08;;;24.40;99.90;;;;;;5074302;28;20397;-73
2022/07/08 12:36:52;;;;;;;7.00;1.83;;;24.50;99.90;;;;;;5058575;28;20053;-73
2022/07/08 12:39:20;;;;;;;6.70;1.77;;;24.60;99.90;;;;;;5058450;28;20181;-73
2022/07/08 12:42:01;;;;;;;7.90;2.00;;;24.60;99.90;;;;;;5075020;28;20051;-73